Time;durP1;ratioP1;P1;durP2;ratioP2;P2;SDS_P1;SDS_P2;PMS_P1;PMS_P2;Temp;Humidity;BMP_temperature;BMP_pressure;BME280_temperature;BME280_humidity;BME280_pressure;Samples;Min_cycle;Max_cycle;Signal;HPM_P1;HPM_P2
2021/10/07 00:00:35;;;;;;;3.60;1.92;;;13.70;80.80;;;;;;6228957;28;21056;-80
2021/10/07 00:03:38;;;;;;;5.80;2.15;;;13.70;80.70;;;;;;6208625;28;20505;-80
2021/10/07 00:06:40;;;;;;;7.45;2.95;;;13.70;80.40;;;;;;6204503;28;20422;-80
2021/10/07 00:09:42;;;;;;;3.63;2.20;;;13.70;80.70;;;;;;6204365;28;20501;-80
2021/10/07 00:12:43;;;;;;;7.93;2.58;;;13.70;80.30;;;;;;6204824;28;20517;-80
2021/10/07 00:15:45;;;;;;;6.38;2.65;;;13.70;80.20;;;;;;6204858;28;20449;-81
2021/10/07 00:18:51;;;;;;;6.40;2.65;;;13.70;80.50;;;;;;6203890;28;20446;-81
2021/10/07 00:21:53;;;;;;;7.03;2.70;;;13.70;80.50;;;;;;6204872;28;20418;-80
2021/10/07 00:24:55;;;;;;;5.43;3.28;;;13.60;80.40;;;;;;6204518;28;20442;-80
2021/10/07 00:28:04;;;;;;;7.97;2.92;;;13.60;80.70;;;;;;6205046;28;20521;-80
2021/10/07 00:31:11;;;;;;;3.70;2.17;;;13.60;80.60;;;;;;6203530;28;20414;-81
2021/10/07 00:34:23;;;;;;;6.22;2.95;;;13.60;80.70;;;;;;6204015;28;20561;-80
2021/10/07 00:39:02;;;;;;;9.38;3.00;;;13.50;80.70;;;;;;6204825;28;20473;-79
2021/10/07 00:40:51;;;;;;;12.52;2.72;;;13.50;81.10;;;;;;6203474;28;20438;-79
2021/10/07 00:43:53;;;;;;;9.52;2.90;;;13.40;81.30;;;;;;6205156;28;20781;-79
2021/10/07 00:46:59;;;;;;;6.07;2.92;;;13.30;81.50;;;;;;6226770;28;20437;-79
2021/10/07 00:53:59;;;;;;;6.00;3.00;;;13.10;81.90;;;;;;6231982;28;20470;-79
2021/10/07 00:57:04;;;;;;;7.53;3.63;;;13.00;82.40;;;;;;6250942;28;20632;-78
2021/10/07 01:00:07;;;;;;;7.40;3.53;;;12.90;82.60;;;;;;6252480;28;20513;-79
2021/10/07 01:03:09;;;;;;;7.07;3.78;;;12.80;83.00;;;;;;6252039;28;20498;-78
2021/10/07 01:06:11;;;;;;;8.70;3.67;;;12.70;83.30;;;;;;6252152;28;20419;-79
2021/10/07 01:09:17;;;;;;;8.05;3.45;;;12.60;83.50;;;;;;6251041;28;20411;-79
2021/10/07 01:12:18;;;;;;;6.75;2.88;;;12.50;83.50;;;;;;6252284;28;20446;-80
2021/10/07 01:15:20;;;;;;;7.97;3.85;;;12.40;83.80;;;;;;6250229;28;20412;-79
2021/10/07 01:18:22;;;;;;;7.30;3.22;;;12.40;84.30;;;;;;6250763;28;20425;-80
2021/10/07 01:21:25;;;;;;;5.68;3.83;;;12.30;84.70;;;;;;6250501;28;20816;-80
2021/10/07 01:24:27;;;;;;;10.00;3.78;;;12.20;84.70;;;;;;6251407;28;20489;-80
2021/10/07 01:27:32;;;;;;;8.55;4.25;;;12.20;84.90;;;;;;6250388;28;20426;-79
2021/10/07 01:30:34;;;;;;;6.65;3.22;;;12.20;85.10;;;;;;6250585;28;20421;-80
2021/10/07 01:33:36;;;;;;;8.90;3.90;;;12.20;85.30;;;;;;6250444;28;20527;-80
2021/10/07 01:36:39;;;;;;;8.60;3.77;;;12.20;85.00;;;;;;6251552;28;20438;-80
2021/10/07 01:39:41;;;;;;;6.95;3.92;;;12.20;84.70;;;;;;6250361;28;20486;-80
2021/10/07 01:42:43;;;;;;;6.20;3.50;;;12.20;84.90;;;;;;6250531;28;20415;-79
2021/10/07 01:45:46;;;;;;;7.75;4.15;;;12.20;85.00;;;;;;6249521;28;20422;-79
2021/10/07 01:48:48;;;;;;;5.77;3.70;;;12.10;85.20;;;;;;6249653;28;20530;-79
2021/10/07 01:51:51;;;;;;;7.18;4.47;;;12.10;85.20;;;;;;6250455;28;20421;-79
2021/10/07 01:54:53;;;;;;;6.43;4.40;;;12.00;85.20;;;;;;6249574;28;20415;-80
2021/10/07 01:57:54;;;;;;;8.50;3.63;;;12.10;85.70;;;;;;6250275;28;20423;-80
2021/10/07 02:00:56;;;;;;;7.55;4.10;;;12.10;85.40;;;;;;6249580;28;20434;-80
2021/10/07 02:03:58;;;;;;;9.20;4.20;;;12.20;85.30;;;;;;6249816;28;20853;-79
2021/10/07 02:07:01;;;;;;;10.32;4.82;;;12.20;85.20;;;;;;6249144;28;20427;-79
2021/10/07 02:10:04;;;;;;;5.68;4.90;;;12.30;85.20;;;;;;6250042;28;21099;-79
2021/10/07 02:13:07;;;;;;;11.47;5.23;;;12.30;85.30;;;;;;6250684;28;20467;-80
2021/10/07 02:16:08;;;;;;;13.10;4.75;;;12.40;85.20;;;;;;6250817;28;20427;-80
2021/10/07 02:19:10;;;;;;;13.32;6.32;;;12.40;84.80;;;;;;6249093;28;20426;-80
2021/10/07 02:22:13;;;;;;;13.13;6.43;;;12.50;84.80;;;;;;6249499;28;20455;-79
2021/10/07 02:25:15;;;;;;;9.40;4.78;;;12.50;85.20;;;;;;6249637;28;20412;-80
2021/10/07 02:28:17;;;;;;;8.70;5.07;;;12.60;85.00;;;;;;6250237;28;20438;-79
2021/10/07 02:31:19;;;;;;;11.05;5.85;;;12.60;85.00;;;;;;6249021;28;20430;-80
2021/10/07 02:34:21;;;;;;;10.85;6.13;;;12.60;85.10;;;;;;6249610;28;20426;-79
2021/10/07 02:37:24;;;;;;;8.33;5.27;;;12.70;84.80;;;;;;6249995;28;20533;-80
2021/10/07 02:40:27;;;;;;;11.00;5.18;;;12.70;85.00;;;;;;6249805;28;20434;-80
2021/10/07 02:43:29;;;;;;;10.23;5.72;;;12.70;84.70;;;;;;6248686;28;20420;-80
2021/10/07 02:46:31;;;;;;;9.93;5.30;;;12.80;84.80;;;;;;6239564;28;20418;-79
2021/10/07 02:49:33;;;;;;;9.68;5.05;;;12.80;84.70;;;;;;6218220;28;20571;-79
2021/10/07 02:52:36;;;;;;;8.57;4.70;;;12.80;84.50;;;;;;6225089;28;20440;-79
2021/10/07 02:55:38;;;;;;;7.33;4.90;;;12.90;84.50;;;;;;6224545;28;20476;-79
2021/10/07 02:58:39;;;;;;;6.97;5.63;;;12.90;84.30;;;;;;6224444;28;20919;-80
2021/10/07 03:01:41;;;;;;;8.60;5.00;;;12.90;84.30;;;;;;6225454;28;20547;-80
2021/10/07 03:04:43;;;;;;;7.50;4.75;;;13.00;84.20;;;;;;6223501;28;20437;-79
2021/10/07 03:07:46;;;;;;;10.93;4.80;;;13.00;83.90;;;;;;6223409;28;20471;-80
2021/10/07 03:10:48;;;;;;;8.05;4.63;;;13.00;83.70;;;;;;6223583;28;20424;-80
2021/10/07 03:13:49;;;;;;;7.75;5.13;;;13.00;83.60;;;;;;6222798;28;20409;-79
2021/10/07 03:16:51;;;;;;;7.07;4.22;;;13.00;83.70;;;;;;6223430;28;20438;-79
2021/10/07 03:19:53;;;;;;;7.22;4.80;;;13.10;83.60;;;;;;6223290;28;20413;-79
2021/10/07 03:22:56;;;;;;;8.93;4.70;;;13.10;83.50;;;;;;6223540;28;20467;-80
2021/10/07 03:25:58;;;;;;;8.35;4.72;;;13.00;83.50;;;;;;6223477;28;20420;-80
2021/10/07 03:28:59;;;;;;;9.90;5.47;;;13.00;83.60;;;;;;6223391;28;20514;-80
2021/10/07 03:32:01;;;;;;;10.57;4.45;;;13.00;83.70;;;;;;6223327;28;20920;-79
2021/10/07 03:35:04;;;;;;;6.55;3.75;;;12.90;84.40;;;;;;6223236;28;20412;-79
2021/10/07 03:38:07;;;;;;;5.97;4.18;;;13.00;84.20;;;;;;6222817;28;20496;-80
2021/10/07 03:41:09;;;;;;;4.95;3.55;;;13.00;83.70;;;;;;6223487;28;20444;-79
2021/10/07 03:44:10;;;;;;;14.60;5.15;;;13.00;83.60;;;;;;6223244;28;20769;-79
2021/10/07 03:47:12;;;;;;;6.95;3.60;;;13.00;83.60;;;;;;6222264;28;20507;-80
2021/10/07 03:50:14;;;;;;;7.10;3.58;;;13.00;83.50;;;;;;6221867;28;20413;-80
2021/10/07 03:53:17;;;;;;;5.88;3.85;;;13.00;83.50;;;;;;6222942;28;20547;-80
2021/10/07 03:56:19;;;;;;;5.22;3.90;;;12.90;83.60;;;;;;6223940;28;20436;-79
2021/10/07 03:59:21;;;;;;;10.05;3.40;;;13.00;83.60;;;;;;6221852;28;20444;-79
2021/10/07 04:02:23;;;;;;;6.85;3.22;;;12.90;83.70;;;;;;6222697;28;20503;-80
2021/10/07 04:05:25;;;;;;;7.68;3.80;;;12.90;83.80;;;;;;6223193;28;20452;-80
2021/10/07 04:08:28;;;;;;;9.70;4.00;;;12.80;83.80;;;;;;6223331;28;20433;-80
2021/10/07 04:11:30;;;;;;;5.37;3.63;;;12.90;84.20;;;;;;6223079;28;21189;-80
2021/10/07 04:14:31;;;;;;;8.98;3.92;;;12.90;84.30;;;;;;6223290;28;20411;-80
2021/10/07 04:17:33;;;;;;;9.17;3.83;;;12.90;84.10;;;;;;6223127;28;20558;-80
2021/10/07 04:20:35;;;;;;;8.13;4.03;;;12.90;84.20;;;;;;6224334;28;20436;-80
2021/10/07 04:23:39;;;;;;;6.43;3.53;;;12.90;84.10;;;;;;6224323;28;20436;-80
2021/10/07 04:26:40;;;;;;;8.32;4.10;;;12.90;84.70;;;;;;6224030;28;20970;-80
2021/10/07 04:29:43;;;;;;;8.68;4.63;;;12.90;84.10;;;;;;6225518;28;20428;-80
2021/10/07 04:32:45;;;;;;;5.65;4.03;;;13.00;84.30;;;;;;6228968;28;20436;-80
2021/10/07 04:35:46;;;;;;;5.15;4.20;;;13.00;84.20;;;;;;6228178;28;20922;-80
2021/10/07 04:38:50;;;;;;;8.02;4.03;;;13.00;84.60;;;;;;6227606;28;20451;-81
2021/10/07 04:41:51;;;;;;;9.40;4.35;;;13.00;84.10;;;;;;6227827;28;20894;-80
2021/10/07 04:44:53;;;;;;;7.07;4.68;;;13.00;84.10;;;;;;6228696;28;20446;-80
2021/10/07 04:47:55;;;;;;;5.97;4.55;;;13.00;84.20;;;;;;6228499;28;20506;-80
2021/10/07 04:50:57;;;;;;;6.60;4.43;;;13.10;84.20;;;;;;6216157;28;20417;-81
2021/10/07 04:54:00;;;;;;;8.63;4.23;;;13.10;83.90;;;;;;6227769;28;20417;-80
2021/10/07 04:57:02;;;;;;;8.68;4.70;;;13.20;83.50;;;;;;6227920;28;20443;-80
2021/10/07 05:00:05;;;;;;;6.22;4.07;;;13.20;83.30;;;;;;6228317;28;20570;-81
2021/10/07 05:03:07;;;;;;;6.80;4.65;;;13.30;83.20;;;;;;6226835;28;20417;-79
2021/10/07 05:06:10;;;;;;;8.77;4.38;;;13.30;83.30;;;;;;6225686;28;20515;-78
2021/10/07 05:09:13;;;;;;;7.90;5.00;;;13.30;83.40;;;;;;6212189;28;20823;-80
2021/10/07 05:12:14;;;;;;;6.22;4.68;;;13.30;83.00;;;;;;6205270;28;20596;-79
2021/10/07 05:15:16;;;;;;;8.18;4.53;;;13.40;83.20;;;;;;6202087;28;20808;-79
2021/10/07 05:18:18;;;;;;;10.13;4.97;;;13.40;82.90;;;;;;6202078;28;20447;-79
2021/10/07 05:21:20;;;;;;;6.63;4.47;;;13.40;82.70;;;;;;6201428;28;21015;-78
2021/10/07 05:24:23;;;;;;;7.17;4.73;;;13.50;83.20;;;;;;6202239;28;20811;-78
2021/10/07 05:27:25;;;;;;;7.77;5.07;;;13.50;83.10;;;;;;6202870;28;20429;-78
2021/10/07 05:30:28;;;;;;;8.73;5.05;;;13.40;82.60;;;;;;6201422;28;20614;-79
2021/10/07 05:33:30;;;;;;;11.25;5.45;;;13.40;82.60;;;;;;6203446;28;20489;-79
2021/10/07 05:36:32;;;;;;;8.73;6.40;;;13.30;83.00;;;;;;6212570;28;20437;-78
2021/10/07 05:39:35;;;;;;;10.47;5.80;;;13.30;83.10;;;;;;6217629;28;20417;-79
2021/10/07 05:42:37;;;;;;;10.82;5.80;;;13.30;83.20;;;;;;6226871;28;20504;-79
2021/10/07 05:45:39;;;;;;;9.45;5.95;;;13.30;83.60;;;;;;6225516;28;20480;-79
2021/10/07 05:48:41;;;;;;;6.15;4.55;;;13.30;83.50;;;;;;6225230;28;20995;-79
2021/10/07 05:51:43;;;;;;;8.30;4.55;;;13.30;83.60;;;;;;6223374;28;20427;-79
2021/10/07 05:54:46;;;;;;;7.68;4.85;;;13.30;84.00;;;;;;6225756;28;20921;-79
2021/10/07 05:57:48;;;;;;;6.50;4.78;;;13.40;84.30;;;;;;6226296;28;20889;-78
2021/10/07 06:00:50;;;;;;;7.10;5.10;;;13.40;83.60;;;;;;6226496;28;20436;-79
2021/10/07 06:03:51;;;;;;;9.73;4.85;;;13.40;82.90;;;;;;6226909;28;20531;-79
2021/10/07 06:06:53;;;;;;;7.72;5.00;;;13.30;83.00;;;;;;6218397;28;20427;-79
2021/10/07 06:09:56;;;;;;;8.45;5.40;;;13.40;83.40;;;;;;6218426;28;20428;-79
2021/10/07 06:12:58;;;;;;;6.47;4.55;;;13.40;83.50;;;;;;6226922;28;20807;-79
2021/10/07 06:16:00;;;;;;;10.23;5.72;;;13.50;83.80;;;;;;6227335;28;20443;-79
2021/10/07 06:19:04;;;;;;;10.85;5.13;;;13.60;83.00;;;;;;6226758;28;20540;-79
2021/10/07 06:22:05;;;;;;;10.95;5.30;;;13.60;83.20;;;;;;6227399;28;20448;-79
2021/10/07 06:25:09;;;;;;;8.77;5.87;;;13.60;83.20;;;;;;6227048;28;20464;-79
2021/10/07 06:28:11;;;;;;;6.70;4.63;;;13.70;82.80;;;;;;6227438;28;20579;-79
2021/10/07 06:31:12;;;;;;;5.78;4.30;;;13.80;82.60;;;;;;6229115;28;20436;-78
2021/10/07 06:34:14;;;;;;;7.75;4.78;;;13.80;82.10;;;;;;6224623;28;20428;-79
2021/10/07 06:37:16;;;;;;;5.57;4.35;;;13.90;82.30;;;;;;6227880;23;20936;-75
2021/10/07 06:40:19;;;;;;;6.93;4.65;;;13.90;82.10;;;;;;6190044;28;20434;-75
2021/10/07 06:43:21;;;;;;;7.05;4.75;;;14.00;81.90;;;;;;6196611;28;20427;-75
2021/10/07 06:46:24;;;;;;;7.60;4.50;;;14.00;81.80;;;;;;6196489;28;20414;-75
2021/10/07 06:49:26;;;;;;;10.48;4.80;;;14.10;81.40;;;;;;6197087;28;20418;-75
2021/10/07 06:52:28;;;;;;;6.82;4.53;;;14.20;81.10;;;;;;6196241;28;20445;-75
2021/10/07 06:55:31;;;;;;;6.82;4.47;;;14.20;80.60;;;;;;6196413;28;20422;-75
2021/10/07 06:58:33;;;;;;;5.50;4.18;;;14.30;81.10;;;;;;6196220;28;20458;-75
2021/10/07 07:01:34;;;;;;;6.57;4.70;;;14.30;80.30;;;;;;6196794;28;20558;-75
2021/10/07 07:04:36;;;;;;;4.90;3.88;;;14.50;80.00;;;;;;6196560;28;20443;-76
2021/10/07 07:07:39;;;;;;;7.80;4.63;;;14.50;80.00;;;;;;6178301;28;20443;-75
2021/10/07 07:10:42;;;;;;;8.43;4.25;;;14.60;79.70;;;;;;6191939;28;20450;-75
2021/10/07 07:13:44;;;;;;;7.37;4.00;;;14.60;79.30;;;;;;6196166;28;20933;-75
2021/10/07 07:16:46;;;;;;;8.63;4.65;;;14.80;79.20;;;;;;6196451;28;20834;-75
2021/10/07 07:19:48;;;;;;;7.77;4.37;;;14.80;78.70;;;;;;6195933;28;21077;-75
2021/10/07 07:22:50;;;;;;;5.43;3.95;;;14.80;78.60;;;;;;6196530;28;20430;-76
2021/10/07 07:25:53;;;;;;;6.95;4.57;;;14.90;78.50;;;;;;6195274;28;20986;-75
2021/10/07 07:28:55;;;;;;;8.85;4.50;;;14.90;77.70;;;;;;6195969;28;20485;-75
2021/10/07 07:31:57;;;;;;;6.10;4.20;;;15.00;78.60;;;;;;6196249;28;20437;-75
2021/10/07 07:34:59;;;;;;;7.43;4.47;;;15.10;77.90;;;;;;6195834;28;20418;-76
2021/10/07 07:38:03;;;;;;;11.05;5.47;;;15.10;78.50;;;;;;6174728;28;20921;-76
2021/10/07 07:41:06;;;;;;;6.85;4.05;;;15.10;78.30;;;;;;6195227;28;20488;-75
2021/10/07 07:44:08;;;;;;;6.82;4.90;;;15.20;78.00;;;;;;6196397;28;20476;-76
2021/10/07 07:47:10;;;;;;;8.10;4.50;;;15.10;78.50;;;;;;6195920;28;20429;-76
2021/10/07 07:50:13;;;;;;;6.07;3.95;;;15.20;78.10;;;;;;6195531;28;20448;-76
2021/10/07 07:53:15;;;;;;;8.30;5.20;;;15.30;78.00;;;;;;6195248;28;20504;-76
2021/10/07 07:56:18;;;;;;;9.45;5.00;;;15.30;77.40;;;;;;6196111;28;20434;-76
2021/10/07 07:59:20;;;;;;;9.70;5.93;;;15.40;77.10;;;;;;6195172;28;20472;-76
2021/10/07 08:02:22;;;;;;;7.72;5.15;;;15.50;76.90;;;;;;6196112;28;20414;-76
2021/10/07 08:05:24;;;;;;;7.78;6.45;;;15.50;76.90;;;;;;6198320;28;20410;-76
2021/10/07 08:08:26;;;;;;;7.03;5.55;;;15.50;76.80;;;;;;6172450;28;20443;-76
2021/10/07 08:11:29;;;;;;;104.30;14.63;;;15.60;76.40;;;;;;6183448;28;20981;-76
2021/10/07 08:14:31;;;;;;;11.77;6.13;;;15.60;76.40;;;;;;6194938;28;20908;-76
2021/10/07 08:17:33;;;;;;;7.90;6.07;;;15.60;76.40;;;;;;6200240;28;20418;-75
2021/10/07 08:20:36;;;;;;;12.27;6.15;;;15.60;75.40;;;;;;6200217;28;20950;-76
2021/10/07 08:23:38;;;;;;;9.10;6.82;;;15.70;74.80;;;;;;6200037;28;20418;-75
2021/10/07 08:26:41;;;;;;;7.47;5.93;;;15.70;75.30;;;;;;6199732;28;20415;-76
2021/10/07 08:29:43;;;;;;;7.75;6.32;;;15.80;75.50;;;;;;6199770;28;20469;-76
2021/10/07 08:32:45;;;;;;;12.33;7.57;;;15.90;75.00;;;;;;6200270;28;20576;-76
2021/10/07 08:35:49;;;;;;;7.88;6.38;;;16.00;74.30;;;;;;6191831;28;20525;-76
2021/10/07 08:38:51;;;;;;;9.87;8.03;;;16.00;73.90;;;;;;6185921;28;20920;-75
2021/10/07 08:41:55;;;;;;;8.07;6.45;;;16.00;73.80;;;;;;6199720;28;20977;-76
2021/10/07 08:44:58;;;;;;;7.87;6.23;;;16.00;73.30;;;;;;6199519;28;20438;-75
2021/10/07 08:48:00;;;;;;;9.23;6.97;;;16.00;74.20;;;;;;6200026;28;20442;-75
2021/10/07 08:51:01;;;;;;;6.32;5.72;;;16.00;73.30;;;;;;6199108;28;20426;-75
2021/10/07 08:54:03;;;;;;;7.78;5.35;;;16.00;72.90;;;;;;6199231;28;20423;-75
2021/10/07 08:57:07;;;;;;;7.13;5.20;;;16.10;73.00;;;;;;6198803;28;20437;-76
2021/10/07 09:00:12;;;;;;;6.78;5.38;;;16.10;72.50;;;;;;6199475;28;20434;-75
2021/10/07 09:03:19;;;;;;;6.45;5.15;;;16.20;72.00;;;;;;6199001;28;20493;-76
2021/10/07 09:06:20;;;;;;;8.15;4.80;;;16.30;70.70;;;;;;6191677;28;20420;-75
2021/10/07 09:09:23;;;;;;;8.57;6.57;;;16.40;70.70;;;;;;6190428;28;20493;-76
2021/10/07 09:12:26;;;;;;;9.70;6.28;;;16.50;71.70;;;;;;6199232;28;20500;-76
2021/10/07 09:15:30;;;;;;;7.28;5.68;;;16.60;70.20;;;;;;6198067;28;20425;-77
2021/10/07 09:18:32;;;;;;;9.50;5.18;;;16.70;69.80;;;;;;6198544;28;20418;-76
2021/10/07 09:21:34;;;;;;;10.55;5.55;;;16.80;69.90;;;;;;6198783;28;20433;-76
2021/10/07 09:24:38;;;;;;;7.00;5.18;;;17.00;70.00;;;;;;6199197;28;20461;-75
2021/10/07 09:27:41;;;;;;;7.60;4.97;;;17.10;68.90;;;;;;6198911;28;20501;-76
2021/10/07 09:30:43;;;;;;;8.73;6.20;;;17.30;68.20;;;;;;6198127;28;20423;-75
2021/10/07 09:33:47;;;;;;;8.70;5.50;;;17.50;68.30;;;;;;6198705;28;20431;-77
2021/10/07 09:36:52;;;;;;;7.95;5.45;;;17.50;66.10;;;;;;6184084;28;20437;-76
2021/10/07 09:39:56;;;;;;;6.00;4.65;;;17.50;66.10;;;;;;6190094;28;20426;-75
2021/10/07 09:43:01;;;;;;;7.22;4.65;;;17.50;65.80;;;;;;6198168;28;20429;-75
2021/10/07 09:46:03;;;;;;;6.00;4.55;;;17.50;66.50;;;;;;6198196;28;20576;-75
2021/10/07 09:49:04;;;;;;;5.05;4.20;;;17.50;65.70;;;;;;6197595;28;20437;-75
2021/10/07 09:52:06;;;;;;;9.63;5.03;;;17.40;66.20;;;;;;6198210;28;20962;-75
2021/10/07 09:55:10;;;;;;;5.45;4.30;;;17.30;67.60;;;;;;6198047;28;20419;-75
2021/10/07 09:58:15;;;;;;;6.57;4.90;;;17.20;66.60;;;;;;6197734;28;20977;-75
2021/10/07 10:01:17;;;;;;;5.50;4.18;;;17.10;66.80;;;;;;6197818;28;20900;-75
2021/10/07 10:04:19;;;;;;;5.32;4.53;;;17.10;66.80;;;;;;6197876;28;20600;-75
2021/10/07 10:07:21;;;;;;;5.53;4.10;;;17.10;66.70;;;;;;6181494;28;20500;-75
2021/10/07 10:10:23;;;;;;;5.03;3.58;;;17.10;67.30;;;;;;6191011;28;20450;-75
2021/10/07 10:13:27;;;;;;;4.68;3.83;;;17.20;67.70;;;;;;6197724;28;20501;-75
2021/10/07 10:16:30;;;;;;;4.30;3.85;;;17.30;65.70;;;;;;6197668;28;20482;-75
2021/10/07 10:19:32;;;;;;;5.25;3.90;;;17.40;66.40;;;;;;6196969;28;20549;-75
2021/10/07 10:22:35;;;;;;;7.70;4.65;;;17.30;66.00;;;;;;6197354;28;20433;-75
2021/10/07 10:25:53;;;;;;;4.75;3.88;;;17.40;66.80;;;;;;6196768;28;20424;-75
2021/10/07 10:28:56;;;;;;;4.63;3.87;;;17.40;65.20;;;;;;6196663;28;20562;-75
2021/10/07 10:31:58;;;;;;;4.63;3.60;;;17.50;64.80;;;;;;6197614;28;20611;-75
2021/10/07 10:35:00;;;;;;;7.80;4.68;;;17.50;66.10;;;;;;6196583;28;20418;-75
2021/10/07 10:38:04;;;;;;;5.35;4.15;;;17.50;65.50;;;;;;6175869;28;20419;-75
2021/10/07 10:41:10;;;;;;;5.65;4.40;;;17.30;65.70;;;;;;6196025;28;20479;-75
2021/10/07 10:44:37;;;;;;;6.93;3.85;;;17.30;65.60;;;;;;6197524;28;20475;-75
2021/10/07 10:47:42;;;;;;;5.57;4.05;;;17.40;64.60;;;;;;6196613;28;20950;-75
2021/10/07 10:51:00;;;;;;;6.45;3.97;;;17.60;65.20;;;;;;6196441;28;20464;-75
2021/10/07 10:54:12;;;;;;;7.53;4.55;;;17.70;64.70;;;;;;6196493;28;20485;-75
2021/10/07 10:57:27;;;;;;;5.70;3.77;;;18.00;62.80;;;;;;6196661;28;20425;-76
2021/10/07 11:00:33;;;;;;;3.72;3.33;;;18.00;63.30;;;;;;6196567;28;20495;-75
2021/10/07 11:03:39;;;;;;;6.35;3.78;;;18.30;64.20;;;;;;6196294;28;20467;-75
2021/10/07 11:07:17;;;;;;;4.83;3.13;;;18.60;62.00;;;;;;6188707;28;20456;-75
2021/10/07 11:10:29;;;;;;;5.65;3.45;;;19.10;62.40;;;;;;6155119;28;20418;-75
2021/10/07 11:13:34;;;;;;;3.92;3.53;;;19.30;58.60;;;;;;6196464;28;20414;-76
2021/10/07 11:16:37;;;;;;;3.83;3.22;;;19.20;59.20;;;;;;6196751;28;20441;-75
2021/10/07 11:19:39;;;;;;;6.35;4.15;;;19.30;59.70;;;;;;6195585;28;20453;-75
2021/10/07 11:22:40;;;;;;;7.10;4.05;;;19.20;59.40;;;;;;6196045;28;20955;-75
2021/10/07 11:25:47;;;;;;;3.92;3.63;;;19.30;60.10;;;;;;6195879;28;20418;-75
2021/10/07 11:28:50;;;;;;;3.53;3.17;;;19.20;60.50;;;;;;6196194;28;20517;-75
2021/10/07 11:31:53;;;;;;;6.07;4.07;;;19.40;59.20;;;;;;6195482;28;20931;-75
2021/10/07 11:35:00;;;;;;;3.50;3.20;;;19.50;59.50;;;;;;6195600;28;20422;-76
2021/10/07 11:38:08;;;;;;;4.22;3.33;;;20.10;57.20;;;;;;6174033;28;20420;-75
2021/10/07 11:41:11;;;;;;;5.45;3.47;;;20.80;55.20;;;;;;6195590;28;20438;-76
2021/10/07 11:44:13;;;;;;;3.90;3.38;;;21.50;52.70;;;;;;6195973;28;20573;-76
2021/10/07 11:47:16;;;;;;;4.45;2.90;;;21.60;51.80;;;;;;6195778;28;20418;-76
2021/10/07 11:50:21;;;;;;;5.10;2.58;;;21.40;51.10;;;;;;6195399;28;20415;-76
2021/10/07 11:53:31;;;;;;;4.30;2.90;;;20.90;52.80;;;;;;6195921;28;20415;-76
2021/10/07 11:56:35;;;;;;;4.63;3.42;;;20.60;54.30;;;;;;6196067;28;20561;-75
2021/10/07 11:59:43;;;;;;;3.28;2.80;;;20.60;54.10;;;;;;6195567;28;20545;-75
2021/10/07 12:03:06;;;;;;;3.75;2.55;;;20.50;53.80;;;;;;6195823;28;20855;-76
2021/10/07 12:06:10;;;;;;;5.10;2.47;;;20.60;54.70;;;;;;6181600;28;20424;-76
2021/10/07 12:09:13;;;;;;;4.53;2.28;;;20.80;53.70;;;;;;6171397;28;20547;-76
2021/10/07 12:12:15;;;;;;;2.13;1.80;;;21.10;52.60;;;;;;6172375;28;20439;-76
2021/10/07 12:15:17;;;;;;;9.87;2.10;;;21.50;50.50;;;;;;6171499;28;20431;-76
2021/10/07 12:18:23;;;;;;;2.47;1.70;;;22.10;49.40;;;;;;6171251;28;20427;-76
2021/10/07 12:21:26;;;;;;;2.65;2.35;;;22.40;48.60;;;;;;6171210;28;20420;-76
2021/10/07 12:24:30;;;;;;;3.27;2.10;;;22.20;48.20;;;;;;6171921;28;20439;-76
2021/10/07 12:27:33;;;;;;;2.45;1.90;;;21.70;49.60;;;;;;6170922;28;20420;-76
2021/10/07 12:30:35;;;;;;;2.83;1.80;;;21.40;51.70;;;;;;6171152;28;20431;-76
2021/10/07 12:33:38;;;;;;;2.53;1.93;;;21.30;51.40;;;;;;6171164;28;20475;-76
2021/10/07 12:36:42;;;;;;;3.15;1.83;;;21.30;50.70;;;;;;6197098;22;21253;-80
2021/10/07 12:39:45;;;;;;;2.95;1.85;;;21.80;50.50;;;;;;6187669;28;20428;-79
2021/10/07 12:42:48;;;;;;;2.67;2.30;;;22.00;49.10;;;;;;6199559;28;20433;-80
2021/10/07 12:46:08;;;;;;;2.28;1.70;;;22.00;49.80;;;;;;6200080;28;20429;-80
2021/10/07 12:49:12;;;;;;;3.20;1.70;;;21.60;47.20;;;;;;6200105;28;20442;-80
2021/10/07 12:52:16;;;;;;;2.38;1.77;;;21.20;49.40;;;;;;6204569;28;20899;-80
2021/10/07 12:55:20;;;;;;;3.50;2.10;;;21.50;48.90;;;;;;6202676;28;20445;-79
2021/10/07 12:58:25;;;;;;;1.52;1.42;;;22.10;48.50;;;;;;6203888;28;20423;-80
2021/10/07 13:01:29;;;;;;;3.20;2.17;;;22.70;47.10;;;;;;6203177;28;20414;-79
2021/10/07 13:04:45;;;;;;;2.70;1.55;;;23.20;45.80;;;;;;6203481;28;20440;-80
2021/10/07 13:07:47;;;;;;;4.20;2.47;;;23.50;44.70;;;;;;6192503;28;20427;-79
2021/10/07 13:10:49;;;;;;;2.63;2.17;;;23.40;44.80;;;;;;6198383;28;20781;-79
2021/10/07 13:13:51;;;;;;;2.17;1.50;;;23.30;46.50;;;;;;6204604;28;20426;-80
2021/10/07 13:16:53;;;;;;;3.53;1.80;;;22.80;46.20;;;;;;6203752;28;20438;-80
2021/10/07 13:19:56;;;;;;;2.92;2.10;;;22.20;48.20;;;;;;6204135;28;20458;-80
2021/10/07 13:22:58;;;;;;;4.20;1.80;;;22.00;48.00;;;;;;6205937;28;20418;-81
2021/10/07 13:26:00;;;;;;;2.22;1.83;;;22.10;47.30;;;;;;6203317;28;20600;-81
2021/10/07 13:29:03;;;;;;;1.77;1.60;;;22.40;47.50;;;;;;6203851;28;20434;-80
2021/10/07 13:32:05;;;;;;;2.45;1.80;;;22.80;46.00;;;;;;6205491;28;20445;-81
2021/10/07 13:35:09;;;;;;;2.53;1.65;;;23.30;44.70;;;;;;6204635;28;20506;-81
2021/10/07 13:38:12;;;;;;;2.30;1.63;;;23.70;45.10;;;;;;6189011;28;20412;-80
2021/10/07 13:41:14;;;;;;;2.60;2.00;;;23.70;42.30;;;;;;6207155;28;20426;-81
2021/10/07 13:44:18;;;;;;;2.70;1.83;;;23.20;45.00;;;;;;6206169;28;20446;-81
2021/10/07 13:47:20;;;;;;;3.38;2.00;;;23.00;45.60;;;;;;6204778;28;20423;-81
2021/10/07 13:50:23;;;;;;;4.90;2.10;;;22.50;46.50;;;;;;6204611;28;20821;-80
2021/10/07 13:53:25;;;;;;;2.72;2.05;;;21.90;49.20;;;;;;6205137;28;20425;-80
2021/10/07 13:56:27;;;;;;;4.30;2.93;;;21.30;49.80;;;;;;6204978;28;20440;-81
2021/10/07 13:59:28;;;;;;;2.22;2.03;;;21.20;49.20;;;;;;6204768;28;20497;-80
2021/10/07 14:02:30;;;;;;;3.75;2.28;;;21.20;49.60;;;;;;6205108;28;20419;-80
2021/10/07 14:05:35;;;;;;;3.97;2.33;;;20.90;50.90;;;;;;6202480;28;20417;-81
2021/10/07 14:08:37;;;;;;;3.30;2.40;;;20.60;53.10;;;;;;6192823;28;20944;-81
2021/10/07 14:11:39;;;;;;;2.72;2.25;;;20.30;50.40;;;;;;6205941;28;20489;-80
2021/10/07 14:14:41;;;;;;;4.38;2.40;;;19.80;52.90;;;;;;6206260;28;20429;-81
2021/10/07 14:17:43;;;;;;;3.40;2.63;;;19.60;54.00;;;;;;6206073;28;20403;-81
2021/10/07 14:20:46;;;;;;;4.18;2.35;;;19.30;56.00;;;;;;6205861;28;20982;-81
2021/10/07 14:23:47;;;;;;;4.38;2.45;;;19.10;55.40;;;;;;6205557;28;20884;-80
2021/10/07 14:26:49;;;;;;;6.30;3.43;;;18.90;56.00;;;;;;6205174;28;20422;-80
2021/10/07 14:29:52;;;;;;;4.25;3.53;;;18.60;57.20;;;;;;6200864;28;20501;-78
2021/10/07 14:32:54;;;;;;;2.85;2.33;;;18.30;59.00;;;;;;6197619;28;20445;-78
2021/10/07 14:35:57;;;;;;;4.57;2.47;;;18.20;59.10;;;;;;6192889;28;20519;-78
2021/10/07 14:38:59;;;;;;;2.80;2.00;;;18.10;59.20;;;;;;6187232;28;20422;-78
2021/10/07 14:42:01;;;;;;;3.45;2.80;;;18.10;59.80;;;;;;6206796;28;20424;-78
2021/10/07 14:45:04;;;;;;;2.80;2.20;;;18.00;59.50;;;;;;6221953;28;20433;-78
2021/10/07 14:48:06;;;;;;;3.43;2.63;;;17.90;60.40;;;;;;6221554;28;20436;-78
2021/10/07 14:51:09;;;;;;;3.85;2.60;;;17.80;61.00;;;;;;6220902;28;20507;-78
2021/10/07 14:54:11;;;;;;;4.47;3.47;;;17.70;60.90;;;;;;6221512;28;20436;-78
2021/10/07 14:57:13;;;;;;;2.37;2.17;;;17.60;61.00;;;;;;6221311;28;20498;-78
2021/10/07 15:00:17;;;;;;;3.10;2.25;;;17.40;61.70;;;;;;6221229;28;20448;-78
2021/10/07 15:03:19;;;;;;;2.53;2.30;;;17.30;62.50;;;;;;6218843;28;20613;-78
2021/10/07 15:06:22;;;;;;;3.67;2.33;;;17.20;62.20;;;;;;6175251;28;20423;-78
2021/10/07 15:09:23;;;;;;;4.67;2.70;;;17.10;63.00;;;;;;6212893;28;20458;-78
2021/10/07 15:12:25;;;;;;;3.15;2.70;;;17.00;63.60;;;;;;6220667;28;20817;-78
2021/10/07 15:15:29;;;;;;;3.03;2.55;;;16.90;63.10;;;;;;6221149;28;20435;-78
2021/10/07 15:18:31;;;;;;;5.25;2.58;;;16.80;63.60;;;;;;6220511;28;20451;-78
2021/10/07 15:21:36;;;;;;;3.50;2.07;;;16.80;63.30;;;;;;6221281;28;20420;-78
2021/10/07 15:24:38;;;;;;;3.25;2.92;;;16.70;63.90;;;;;;6221765;28;20474;-78
2021/10/07 15:27:40;;;;;;;2.33;2.13;;;16.70;63.20;;;;;;6220644;28;20424;-78
2021/10/07 15:30:42;;;;;;;2.88;2.40;;;16.70;63.90;;;;;;6220520;28;20519;-77
2021/10/07 15:33:44;;;;;;;3.07;2.57;;;16.70;64.10;;;;;;6220840;28;20413;-78
2021/10/07 15:36:47;;;;;;;2.80;2.30;;;16.70;63.90;;;;;;6213406;28;20437;-78
2021/10/07 15:39:49;;;;;;;2.40;2.20;;;16.80;63.40;;;;;;6212038;28;20413;-78
2021/10/07 15:42:51;;;;;;;2.53;2.33;;;16.80;63.20;;;;;;6220742;28;20787;-78
2021/10/07 15:45:53;;;;;;;3.17;2.47;;;16.80;63.60;;;;;;6220434;28;20798;-78
2021/10/07 15:48:56;;;;;;;4.57;2.80;;;16.80;64.20;;;;;;6220490;28;20444;-78
2021/10/07 15:51:59;;;;;;;2.20;2.00;;;16.80;62.80;;;;;;6220734;28;20520;-78
2021/10/07 15:55:01;;;;;;;2.95;2.67;;;16.80;63.10;;;;;;6220325;28;20521;-78